Time;durP1;ratioP1;P1;durP2;ratioP2;P2;SDS_P1;SDS_P2;PMS_P1;PMS_P2;Temp;Humidity;BMP_temperature;BMP_pressure;BME280_temperature;BME280_humidity;BME280_pressure;Samples;Min_cycle;Max_cycle;Signal;HPM_P1;HPM_P2
2022/07/21 00:00:28;;;;;;;;;3.50;3.50;;;;;;;;5015870;28;8931;-80
2022/07/21 00:02:56;;;;;;;;;4.25;4.25;;;;;;;;5017324;28;8881;-80
2022/07/21 00:05:25;;;;;;;;;5.50;5.50;;;;;;;;5022011;28;8878;-80
2022/07/21 00:07:52;;;;;;;;;6.75;5.75;;;;;;;;5019409;28;9000;-80
2022/07/21 00:10:21;;;;;;;;;6.25;6.25;;;;;;;;5021633;28;8881;-79
2022/07/21 00:12:50;;;;;;;;;4.50;4.50;;;;;;;;5020812;28;8866;-80
2022/07/21 00:15:19;;;;;;;;;4.25;4.25;;;;;;;;5018283;28;8902;-79
2022/07/21 00:17:46;;;;;;;;;6.25;5.50;;;;;;;;5019295;28;8892;-79
2022/07/21 00:20:14;;;;;;;;;5.00;5.00;;;;;;;;5016011;28;8869;-79
2022/07/21 00:22:42;;;;;;;;;5.00;5.00;;;;;;;;5020615;28;8883;-80
2022/07/21 00:25:11;;;;;;;;;5.00;4.75;;;;;;;;5020158;28;8885;-79
2022/07/21 00:27:38;;;;;;;;;7.25;7.25;;;;;;;;5020312;28;8870;-80
2022/07/21 00:30:09;;;;;;;;;6.25;6.25;;;;;;;;5020293;28;8888;-79
2022/07/21 00:32:37;;;;;;;;;5.50;5.50;;;;;;;;5018599;28;8905;-79
2022/07/21 00:35:05;;;;;;;;;8.00;6.00;;;;;;;;5017262;28;8858;-78
2022/07/21 00:37:32;;;;;;;;;8.25;8.25;;;;;;;;5015831;28;8884;-79
2022/07/21 00:40:00;;;;;;;;;10.00;10.00;;;;;;;;5017367;28;8897;-79
2022/07/21 00:42:30;;;;;;;;;11.50;9.50;;;;;;;;5017478;28;8939;-78
2022/07/21 00:44:58;;;;;;;;;9.50;9.50;;;;;;;;5018087;28;8905;-79
2022/07/21 00:47:29;;;;;;;;;4.00;4.00;;;;;;;;5020104;28;8845;-79
2022/07/21 00:49:58;;;;;;;;;9.00;9.00;;;;;;;;5015093;28;8887;-79
2022/07/21 00:52:25;;;;;;;;;9.25;8.75;;;;;;;;5018513;28;8872;-80
2022/07/21 00:54:53;;;;;;;;;8.25;8.25;;;;;;;;5018392;28;9635;-80
2022/07/21 00:57:20;;;;;;;;;10.50;10.50;;;;;;;;5022198;28;8869;-79
2022/07/21 00:59:47;;;;;;;;;8.50;8.00;;;;;;;;5019491;28;9865;-79
2022/07/21 01:02:15;;;;;;;;;7.25;7.25;;;;;;;;5018913;28;8849;-78
2022/07/21 01:04:44;;;;;;;;;9.25;8.00;;;;;;;;5020082;28;8861;-79
2022/07/21 01:07:11;;;;;;;;;9.50;9.50;;;;;;;;5019531;28;9012;-79
2022/07/21 01:09:38;;;;;;;;;8.00;6.00;;;;;;;;5017906;28;8857;-79
2022/07/21 01:12:07;;;;;;;;;9.00;9.00;;;;;;;;5019591;28;8865;-79
2022/07/21 01:14:35;;;;;;;;;10.25;10.00;;;;;;;;5019440;28;8889;-79
2022/07/21 01:17:03;;;;;;;;;12.00;12.00;;;;;;;;5020642;28;9669;-79
2022/07/21 01:19:30;;;;;;;;;10.50;10.50;;;;;;;;5020292;28;9669;-79
2022/07/21 01:21:59;;;;;;;;;10.50;10.50;;;;;;;;5018139;28;8877;-79
2022/07/21 01:24:27;;;;;;;;;11.50;10.00;;;;;;;;5018717;28;8861;-79
2022/07/21 01:26:55;;;;;;;;;9.00;9.00;;;;;;;;5021353;28;8846;-79
2022/07/21 01:29:23;;;;;;;;;13.50;12.00;;;;;;;;5014935;28;8889;-79
2022/07/21 01:31:51;;;;;;;;;8.50;7.50;;;;;;;;5018178;28;8806;-79
2022/07/21 01:34:19;;;;;;;;;13.00;12.00;;;;;;;;5025372;28;9646;-79
2022/07/21 01:36:46;;;;;;;;;7.50;7.50;;;;;;;;5019484;28;8869;-80
2022/07/21 01:42:00;;;;;;;;;10.25;10.25;;;;;;;;5021356;28;8845;-79
2022/07/21 01:44:27;;;;;;;;;10.00;10.00;;;;;;;;5022448;28;8876;-79
2022/07/21 01:46:55;;;;;;;;;12.00;10.25;;;;;;;;5022634;28;9933;-78
2022/07/21 01:49:23;;;;;;;;;10.75;9.50;;;;;;;;5024050;28;8850;-79
2022/07/21 01:51:50;;;;;;;;;10.50;10.50;;;;;;;;5019037;28;8895;-79
2022/07/21 01:54:19;;;;;;;;;9.25;8.00;;;;;;;;5020200;28;8886;-79
2022/07/21 01:56:47;;;;;;;;;13.00;13.00;;;;;;;;5020729;28;8908;-79
2022/07/21 01:59:14;;;;;;;;;12.75;12.75;;;;;;;;5021365;28;8893;-79
2022/07/21 02:01:41;;;;;;;;;12.00;12.00;;;;;;;;5023906;28;8810;-79
2022/07/21 02:04:08;;;;;;;;;12.25;10.50;;;;;;;;5021629;28;8949;-79
2022/07/21 02:06:36;;;;;;;;;9.50;9.50;;;;;;;;5023103;28;8897;-78
2022/07/21 02:09:03;;;;;;;;;11.50;11.50;;;;;;;;5023833;28;8869;-79
2022/07/21 02:11:32;;;;;;;;;13.75;13.75;;;;;;;;5021435;28;8894;-79
2022/07/21 02:14:01;;;;;;;;;10.25;10.25;;;;;;;;5022684;28;8911;-79
2022/07/21 02:16:28;;;;;;;;;10.25;10.25;;;;;;;;5019607;28;8869;-79
2022/07/21 02:18:55;;;;;;;;;12.00;12.00;;;;;;;;5022364;28;8876;-79
2022/07/21 02:21:22;;;;;;;;;7.50;7.50;;;;;;;;5021176;28;8879;-79
2022/07/21 02:23:50;;;;;;;;;10.25;10.25;;;;;;;;5024073;28;8907;-79
2022/07/21 02:26:17;;;;;;;;;12.75;10.75;;;;;;;;5022089;28;8911;-79
2022/07/21 02:28:46;;;;;;;;;13.00;11.00;;;;;;;;5023472;28;8877;-79
2022/07/21 02:31:14;;;;;;;;;11.75;11.75;;;;;;;;5017015;28;8839;-79
2022/07/21 02:33:41;;;;;;;;;11.00;9.25;;;;;;;;5020190;28;8869;-79
2022/07/21 02:36:10;;;;;;;;;8.25;7.75;;;;;;;;5023268;28;8901;-79
2022/07/21 02:38:37;;;;;;;;;12.00;10.25;;;;;;;;5019387;28;8901;-79
2022/07/21 02:41:05;;;;;;;;;11.25;9.25;;;;;;;;5022325;28;8868;-80
2022/07/21 02:43:32;;;;;;;;;7.00;7.00;;;;;;;;5017924;28;8873;-79
2022/07/21 02:46:01;;;;;;;;;10.00;10.00;;;;;;;;4997350;28;8899;-79
2022/07/21 02:48:28;;;;;;;;;7.00;7.00;;;;;;;;5000219;28;8884;-79
2022/07/21 02:50:56;;;;;;;;;10.00;6.50;;;;;;;;5000474;28;8876;-79
2022/07/21 02:53:25;;;;;;;;;10.00;8.00;;;;;;;;5000106;28;9506;-79
2022/07/21 02:55:52;;;;;;;;;8.75;8.75;;;;;;;;4997184;28;8888;-79
2022/07/21 02:58:21;;;;;;;;;10.00;8.75;;;;;;;;5002231;28;8995;-79
2022/07/21 03:00:52;;;;;;;;;10.00;8.25;;;;;;;;5000316;28;9704;-79
2022/07/21 03:03:21;;;;;;;;;12.25;10.50;;;;;;;;5010994;28;8906;-79
2022/07/21 03:05:49;;;;;;;;;11.00;9.25;;;;;;;;5007328;28;8884;-79
2022/07/21 03:08:16;;;;;;;;;9.75;9.75;;;;;;;;5005458;28;9478;-79
2022/07/21 03:10:44;;;;;;;;;9.00;9.00;;;;;;;;5011055;28;8869;-79
2022/07/21 03:13:11;;;;;;;;;9.75;9.75;;;;;;;;5003182;28;8860;-79
2022/07/21 03:15:39;;;;;;;;;8.75;8.25;;;;;;;;5005275;28;8886;-79
2022/07/21 03:18:06;;;;;;;;;6.25;6.25;;;;;;;;5004055;28;8885;-79
2022/07/21 03:20:37;;;;;;;;;11.25;11.25;;;;;;;;5004118;28;8890;-79
2022/07/21 03:23:05;;;;;;;;;12.75;12.00;;;;;;;;4998737;28;8896;-79
2022/07/21 03:25:32;;;;;;;;;9.50;9.50;;;;;;;;4987384;28;8884;-79
2022/07/21 03:27:59;;;;;;;;;11.00;11.00;;;;;;;;5001778;28;8868;-79
2022/07/21 03:30:28;;;;;;;;;11.00;11.00;;;;;;;;5001422;28;8872;-79
2022/07/21 03:32:56;;;;;;;;;13.50;12.25;;;;;;;;5001596;28;8878;-79
2022/07/21 03:35:23;;;;;;;;;10.25;10.25;;;;;;;;5002532;28;8886;-79
2022/07/21 03:37:55;;;;;;;;;11.00;11.00;;;;;;;;5004233;28;8876;-80
2022/07/21 03:40:25;;;;;;;;;13.50;10.50;;;;;;;;5002409;28;8949;-80
2022/07/21 03:42:53;;;;;;;;;10.50;10.50;;;;;;;;5008658;28;8893;-80
2022/07/21 03:45:21;;;;;;;;;9.00;8.50;;;;;;;;5014150;28;8874;-80
2022/07/21 03:47:48;;;;;;;;;11.00;11.00;;;;;;;;5020909;28;8891;-80
2022/07/21 03:50:17;;;;;;;;;10.75;10.75;;;;;;;;5020201;28;8905;-80
2022/07/21 03:52:44;;;;;;;;;13.50;11.50;;;;;;;;5025918;28;8875;-79
2022/07/21 03:55:17;;;;;;;;;11.25;10.00;;;;;;;;5023447;28;8877;-79
2022/07/21 03:57:46;;;;;;;;;12.25;9.75;;;;;;;;5016683;28;8897;-80
2022/07/21 04:00:16;;;;;;;;;10.25;9.50;;;;;;;;5017555;28;8896;-81
2022/07/21 04:02:44;;;;;;;;;11.00;9.75;;;;;;;;5018397;28;8865;-80
2022/07/21 04:05:11;;;;;;;;;10.50;10.50;;;;;;;;5019879;28;8861;-79
2022/07/21 04:07:41;;;;;;;;;9.00;7.75;;;;;;;;5022320;28;8861;-80
2022/07/21 04:10:09;;;;;;;;;8.75;8.75;;;;;;;;5020194;28;8874;-80
2022/07/21 04:12:39;;;;;;;;;10.75;10.75;;;;;;;;5022808;28;8858;-80
2022/07/21 04:15:08;;;;;;;;;9.00;9.00;;;;;;;;5018668;28;9683;-80
2022/07/21 04:17:35;;;;;;;;;10.25;10.25;;;;;;;;5020074;28;8849;-80
2022/07/21 04:20:03;;;;;;;;;12.25;9.25;;;;;;;;5020642;28;8873;-80
2022/07/21 04:22:30;;;;;;;;;10.25;9.75;;;;;;;;5020639;28;8944;-80
2022/07/21 04:24:59;;;;;;;;;9.00;9.00;;;;;;;;5021848;28;8895;-80
2022/07/21 04:27:26;;;;;;;;;10.00;10.00;;;;;;;;5018582;28;8885;-80
2022/07/21 04:29:56;;;;;;;;;10.50;9.00;;;;;;;;5018483;28;8857;-80
2022/07/21 04:32:24;;;;;;;;;9.00;8.50;;;;;;;;5017909;28;9439;-80
2022/07/21 04:34:51;;;;;;;;;11.75;11.75;;;;;;;;5021548;28;8886;-80
2022/07/21 04:37:18;;;;;;;;;9.75;9.75;;;;;;;;5019615;28;9017;-79
2022/07/21 04:39:46;;;;;;;;;13.25;12.00;;;;;;;;5018989;28;8911;-79
2022/07/21 04:42:13;;;;;;;;;10.50;10.50;;;;;;;;5018556;28;9583;-79
2022/07/21 04:44:40;;;;;;;;;11.00;10.00;;;;;;;;5022329;28;8888;-79
2022/07/21 04:47:09;;;;;;;;;11.25;11.25;;;;;;;;5019157;28;9644;-79
2022/07/21 04:49:36;;;;;;;;;14.25;14.25;;;;;;;;5014497;28;8865;-79
2022/07/21 04:52:04;;;;;;;;;11.75;10.25;;;;;;;;5021050;28;8877;-79
2022/07/21 04:54:31;;;;;;;;;11.50;11.50;;;;;;;;5017620;28;8892;-81
2022/07/21 04:56:59;;;;;;;;;14.50;14.50;;;;;;;;5012960;28;8888;-79
2022/07/21 04:59:26;;;;;;;;;13.00;12.50;;;;;;;;5013372;28;8882;-79
2022/07/21 05:01:53;;;;;;;;;14.25;12.50;;;;;;;;5017905;28;8849;-78
2022/07/21 05:04:22;;;;;;;;;14.00;13.50;;;;;;;;5016765;28;8878;-78
2022/07/21 05:06:50;;;;;;;;;13.00;13.00;;;;;;;;5023672;28;8877;-80
2022/07/21 05:09:17;;;;;;;;;11.00;11.00;;;;;;;;5024430;28;8869;-79
2022/07/21 05:11:45;;;;;;;;;12.50;11.25;;;;;;;;5022829;28;8988;-79
2022/07/21 05:14:12;;;;;;;;;8.75;8.75;;;;;;;;5023682;28;8994;-79
2022/07/21 05:16:39;;;;;;;;;14.25;12.75;;;;;;;;5022946;28;8888;-79
2022/07/21 05:19:07;;;;;;;;;15.25;13.25;;;;;;;;5024142;28;8877;-80
2022/07/21 05:21:36;;;;;;;;;9.50;8.75;;;;;;;;5020854;28;8903;-79
2022/07/21 05:24:03;;;;;;;;;15.00;14.75;;;;;;;;5021029;28;8892;-80
2022/07/21 05:26:31;;;;;;;;;13.75;12.25;;;;;;;;5021286;28;9596;-79
2022/07/21 05:28:58;;;;;;;;;13.25;13.25;;;;;;;;5022978;28;8899;-78
2022/07/21 05:31:25;;;;;;;;;16.50;13.50;;;;;;;;5022995;28;8822;-78
2022/07/21 05:33:53;;;;;;;;;16.00;14.50;;;;;;;;5018486;28;9650;-78
2022/07/21 05:36:20;;;;;;;;;14.25;13.25;;;;;;;;5023947;28;8854;-78
2022/07/21 05:38:48;;;;;;;;;16.25;15.75;;;;;;;;5020468;28;8890;-79
2022/07/21 05:41:16;;;;;;;;;13.00;13.00;;;;;;;;5021439;28;8889;-79
2022/07/21 05:43:44;;;;;;;;;16.00;14.00;;;;;;;;5018771;28;8896;-78
2022/07/21 05:46:11;;;;;;;;;14.25;14.25;;;;;;;;5021437;28;8873;-79
2022/07/21 05:48:39;;;;;;;;;16.25;15.75;;;;;;;;5019421;28;8989;-78
2022/07/21 05:51:06;;;;;;;;;16.75;15.00;;;;;;;;5023293;28;8881;-78
2022/07/21 05:53:34;;;;;;;;;17.00;16.00;;;;;;;;5016577;28;8861;-78
2022/07/21 05:56:02;;;;;;;;;18.25;15.25;;;;;;;;5020124;28;8899;-78
2022/07/21 05:58:30;;;;;;;;;17.50;15.00;;;;;;;;5014742;28;9651;-79
2022/07/21 06:01:09;;;;;;;;;14.00;14.00;;;;;;;;5021659;28;8790;-79
2022/07/21 06:03:36;;;;;;;;;16.00;16.00;;;;;;;;5019446;28;10472;-77
2022/07/21 06:06:04;;;;;;;;;17.25;17.00;;;;;;;;5024368;28;8980;-79
2022/07/21 06:08:32;;;;;;;;;19.00;15.50;;;;;;;;5018582;28;8865;-79
2022/07/21 06:10:59;;;;;;;;;21.00;19.25;;;;;;;;5024872;28;8873;-79
2022/07/21 06:13:28;;;;;;;;;18.00;18.00;;;;;;;;5016373;28;9649;-79
2022/07/21 06:15:55;;;;;;;;;20.00;18.50;;;;;;;;5021611;28;8874;-78
2022/07/21 06:18:23;;;;;;;;;18.00;18.00;;;;;;;;5021429;28;8851;-78
2022/07/21 06:20:50;;;;;;;;;18.50;18.25;;;;;;;;5018697;28;8899;-79
2022/07/21 06:23:17;;;;;;;;;20.50;18.00;;;;;;;;5021894;28;9662;-80
2022/07/21 06:25:45;;;;;;;;;19.25;18.50;;;;;;;;5017202;28;8879;-72
2022/07/21 06:28:13;;;;;;;;;19.00;16.25;;;;;;;;5025815;28;9591;-72
2022/07/21 06:30:42;;;;;;;;;17.50;17.50;;;;;;;;5016285;28;8812;-72
2022/07/21 06:33:09;;;;;;;;;16.25;16.25;;;;;;;;5023286;28;10395;-73
2022/07/21 06:35:37;;;;;;;;;18.00;16.00;;;;;;;;5023052;28;9662;-73
2022/07/21 06:38:05;;;;;;;;;18.00;18.00;;;;;;;;5020985;28;8889;-73
2022/07/21 06:40:33;;;;;;;;;15.75;15.75;;;;;;;;5026160;28;8855;-73
2022/07/21 06:43:00;;;;;;;;;20.75;19.50;;;;;;;;5022478;28;8862;-72
2022/07/21 06:45:27;;;;;;;;;24.75;22.75;;;;;;;;5022602;28;8869;-73
2022/07/21 06:48:04;;;;;;;;;19.00;18.75;;;;;;;;5020655;28;8894;-73
2022/07/21 06:50:32;;;;;;;;;21.75;18.00;;;;;;;;5023668;28;8858;-72
2022/07/21 06:52:59;;;;;;;;;20.25;17.75;;;;;;;;5022911;28;8891;-72
2022/07/21 06:55:27;;;;;;;;;17.50;17.50;;;;;;;;5024764;28;8899;-72
2022/07/21 06:57:54;;;;;;;;;17.50;14.25;;;;;;;;5023896;28;8987;-74
2022/07/21 07:00:24;;;;;;;;;23.75;19.50;;;;;;;;5020775;28;8876;-74
2022/07/21 07:02:52;;;;;;;;;18.50;18.50;;;;;;;;5020777;28;8883;-74
2022/07/21 07:05:21;;;;;;;;;22.75;22.25;;;;;;;;5016992;28;8872;-74
2022/07/21 07:07:48;;;;;;;;;21.75;20.75;;;;;;;;5020149;28;8888;-73
2022/07/21 07:10:23;;;;;;;;;23.75;22.50;;;;;;;;5017165;28;8866;-76
2022/07/21 07:12:50;;;;;;;;;26.25;26.25;;;;;;;;5020707;28;8972;-73
2022/07/21 07:15:17;;;;;;;;;23.25;22.00;;;;;;;;5022820;28;8923;-74
2022/07/21 07:17:45;;;;;;;;;22.00;20.25;;;;;;;;5019039;28;9715;-73
2022/07/21 07:20:12;;;;;;;;;24.25;22.75;;;;;;;;5019479;28;8996;-73
2022/07/21 07:22:41;;;;;;;;;21.00;21.00;;;;;;;;5045789;28;8975;-73
2022/07/21 07:25:10;;;;;;;;;26.20;25.60;;;;;;;;5022112;28;8872;-73
2022/07/21 07:27:37;;;;;;;;;20.75;20.75;;;;;;;;5018979;28;8878;-74
2022/07/21 07:30:05;;;;;;;;;23.75;23.75;;;;;;;;5018756;28;8865;-73
2022/07/21 07:32:33;;;;;;;;;22.60;20.80;;;;;;;;5014279;28;8884;-73
2022/07/21 07:35:00;;;;;;;;;22.60;22.60;;;;;;;;5016910;28;8873;-72
2022/07/21 07:37:27;;;;;;;;;21.75;21.75;;;;;;;;5019609;28;8864;-72
2022/07/21 07:39:56;;;;;;;;;25.00;22.20;;;;;;;;5018670;28;8890;-72
2022/07/21 07:42:23;;;;;;;;;27.20;25.40;;;;;;;;5022156;28;9643;-72
2022/07/21 07:44:50;;;;;;;;;25.40;23.80;;;;;;;;5015299;28;8904;-72
2022/07/21 07:47:18;;;;;;;;;19.20;19.20;;;;;;;;5021272;28;8895;-75
2022/07/21 07:49:49;;;;;;;;;20.40;20.40;;;;;;;;5015305;28;8885;-74
2022/07/21 07:52:16;;;;;;;;;24.80;23.20;;;;;;;;5016270;28;8875;-74
2022/07/21 07:54:44;;;;;;;;;22.60;22.60;;;;;;;;5010681;28;8936;-74
2022/07/21 07:57:12;;;;;;;;;20.40;18.80;;;;;;;;5021624;28;9023;-74
2022/07/21 07:59:40;;;;;;;;;25.60;24.80;;;;;;;;5017468;28;8845;-71
2022/07/21 08:02:07;;;;;;;;;24.00;24.00;;;;;;;;5017509;28;8818;-73
2022/07/21 08:04:36;;;;;;;;;16.80;15.80;;;;;;;;5020837;28;8903;-73
2022/07/21 08:07:04;;;;;;;;;22.80;22.60;;;;;;;;5017001;28;8877;-77
2022/07/21 08:09:31;;;;;;;;;25.20;22.40;;;;;;;;5018724;28;9655;-73
2022/07/21 08:11:58;;;;;;;;;25.20;25.20;;;;;;;;5019184;28;8923;-75
2022/07/21 08:14:28;;;;;;;;;24.20;22.80;;;;;;;;5014467;28;8980;-75
2022/07/21 08:16:55;;;;;;;;;24.00;22.20;;;;;;;;5018667;28;8924;-75
2022/07/21 08:19:22;;;;;;;;;18.80;17.00;;;;;;;;5017652;28;8841;-74
2022/07/21 08:21:49;;;;;;;;;26.20;24.80;;;;;;;;5020352;28;8857;-78
2022/07/21 08:24:17;;;;;;;;;21.00;19.20;;;;;;;;5017318;28;8854;-74
2022/07/21 08:26:45;;;;;;;;;21.40;20.80;;;;;;;;5014314;28;9034;-75
2022/07/21 08:29:12;;;;;;;;;20.60;20.60;;;;;;;;5017492;28;8866;-74
2022/07/21 08:31:41;;;;;;;;;19.80;19.80;;;;;;;;5018135;28;8845;-78
2022/07/21 08:34:09;;;;;;;;;22.00;22.00;;;;;;;;5022497;28;8857;-75
2022/07/21 08:36:36;;;;;;;;;21.40;18.60;;;;;;;;5018145;28;8881;-76
2022/07/21 08:39:04;;;;;;;;;28.20;25.60;;;;;;;;5018458;28;9646;-74
2022/07/21 08:41:33;;;;;;;;;20.00;20.00;;;;;;;;5019364;28;9678;-75
2022/07/21 08:44:00;;;;;;;;;25.60;21.20;;;;;;;;5018876;28;8981;-73
2022/07/21 08:46:30;;;;;;;;;22.60;21.00;;;;;;;;5020617;28;8881;-77
2022/07/21 08:49:02;;;;;;;;;23.00;22.40;;;;;;;;5017789;28;9631;-75
2022/07/21 08:51:36;;;;;;;;;23.60;20.00;;;;;;;;5020783;28;8987;-76
2022/07/21 08:54:04;;;;;;;;;22.40;21.00;;;;;;;;5021327;28;8869;-75
2022/07/21 08:56:31;;;;;;;;;22.40;22.40;;;;;;;;5021617;28;8869;-75
2022/07/21 08:58:59;;;;;;;;;19.80;19.20;;;;;;;;5020651;28;8882;-75
2022/07/21 09:01:26;;;;;;;;;20.40;20.40;;;;;;;;5016758;28;8818;-75
2022/07/21 09:03:58;;;;;;;;;73.75;60.50;;;;;;;;5020004;28;8878;-75
2022/07/21 09:06:27;;;;;;;;;83.75;81.50;;;;;;;;5018842;28;8882;-72
2022/07/21 09:08:58;;;;;;;;;48.75;38.75;;;;;;;;5018474;28;10201;-75
2022/07/21 09:11:30;;;;;;;;;46.00;37.50;;;;;;;;5018320;28;8990;-75
2022/07/21 09:14:07;;;;;;;;;24.60;19.80;;;;;;;;5021622;28;8891;-76
2022/07/21 09:16:38;;;;;;;;;16.60;16.00;;;;;;;;5019325;28;8885;-75
2022/07/21 09:19:06;;;;;;;;;25.80;24.20;;;;;;;;5021300;28;8862;-76
2022/07/21 09:21:35;;;;;;;;;17.20;17.20;;;;;;;;5021576;28;8883;-76
2022/07/21 09:24:16;;;;;;;;;51.25;42.00;;;;;;;;5021654;28;8865;-74
2022/07/21 09:27:10;;;;;;;;;249.00;232.67;;;;;;;;5016568;28;8869;-74
2022/07/21 09:29:43;;;;;;;;;26.60;25.40;;;;;;;;5017154;28;11683;-75
2022/07/21 09:32:21;;;;;;;;;24.60;21.20;;;;;;;;5014791;28;8822;-74
2022/07/21 09:34:50;;;;;;;;;22.40;22.40;;;;;;;;5020835;28;8886;-75
2022/07/21 09:37:21;;;;;;;;;116.25;109.75;;;;;;;;5019068;28;8885;-74
2022/07/21 09:39:50;;;;;;;;;56.75;47.25;;;;;;;;5017391;28;10559;-74
2022/07/21 09:42:20;;;;;;;;;90.25;85.25;;;;;;;;5017791;28;8884;-74
2022/07/21 09:44:50;;;;;;;;;78.00;69.25;;;;;;;;5017444;28;10163;-73
2022/07/21 09:47:19;;;;;;;;;18.00;17.20;;;;;;;;5017479;28;9364;-72
2022/07/21 09:49:46;;;;;;;;;24.80;23.20;;;;;;;;5013889;28;8892;-74
2022/07/21 09:52:26;;;;;;;;;264.33;240.33;;;;;;;;5017512;28;8881;-74
2022/07/21 09:55:00;;;;;;;;;23.40;22.00;;;;;;;;5021756;28;8966;-75
2022/07/21 09:57:29;;;;;;;;;192.67;187.67;;;;;;;;5025944;28;8884;-76
2022/07/21 09:59:57;;;;;;;;;28.60;25.80;;;;;;;;5029853;28;11778;-73
2022/07/21 10:02:26;;;;;;;;;23.80;23.40;;;;;;;;5024019;28;8915;-75
2022/07/21 10:04:59;;;;;;;;;53.50;44.75;;;;;;;;5022095;28;8906;-74
2022/07/21 10:07:29;;;;;;;;;45.75;38.75;;;;;;;;5020132;28;8866;-74
2022/07/21 10:09:57;;;;;;;;;64.25;51.25;;;;;;;;5022124;28;9284;-73
2022/07/21 10:12:25;;;;;;;;;36.20;30.80;;;;;;;;5026112;28;8980;-74
2022/07/21 10:14:53;;;;;;;;;42.40;35.40;;;;;;;;5024846;28;8914;-75
2022/07/21 10:17:22;;;;;;;;;25.80;24.00;;;;;;;;5025077;28;9059;-74
2022/07/21 10:20:05;;;;;;;;;44.40;36.00;;;;;;;;5024712;28;8893;-73
2022/07/21 10:22:45;;;;;;;;;28.20;25.20;;;;;;;;5021652;28;8988;-73
2022/07/21 10:25:12;;;;;;;;;35.60;31.60;;;;;;;;5021758;28;8879;-74
2022/07/21 10:27:43;;;;;;;;;50.75;41.25;;;;;;;;5020923;28;8865;-75
2022/07/21 10:30:15;;;;;;;;;26.20;23.20;;;;;;;;5019464;28;8865;-73
2022/07/21 10:32:51;;;;;;;;;44.80;38.20;;;;;;;;5019627;28;8877;-75
2022/07/21 10:35:31;;;;;;;;;43.40;37.80;;;;;;;;5023525;28;8889;-74
2022/07/21 10:38:00;;;;;;;;;25.60;24.80;;;;;;;;5023167;28;8954;-75
2022/07/21 10:40:43;;;;;;;;;24.00;23.80;;;;;;;;5020921;28;8869;-74
2022/07/21 10:43:42;;;;;;;;;22.40;20.40;;;;;;;;5023924;28;8883;-74
2022/07/21 10:46:37;;;;;;;;;18.60;18.60;;;;;;;;5019753;28;8873;-73
2022/07/21 10:49:06;;;;;;;;;22.80;22.80;;;;;;;;5022830;28;8858;-73
2022/07/21 10:51:36;;;;;;;;;25.60;25.60;;;;;;;;5021882;28;8897;-74
2022/07/21 10:54:34;;;;;;;;;23.40;23.40;;;;;;;;5019193;28;8877;-74
2022/07/21 10:57:29;;;;;;;;;19.80;17.80;;;;;;;;4982470;28;9781;-74
2022/07/21 11:00:27;;;;;;;;;26.60;23.40;;;;;;;;5021017;28;9751;-74
2022/07/21 11:02:56;;;;;;;;;22.20;22.20;;;;;;;;5021375;28;8867;-73
2022/07/21 11:05:25;;;;;;;;;30.00;27.00;;;;;;;;5022765;28;9643;-74
2022/07/21 11:08:17;;;;;;;;;22.20;21.20;;;;;;;;5017701;28;8928;-73
2022/07/21 11:10:48;;;;;;;;;22.80;22.80;;;;;;;;5019674;28;8888;-74
2022/07/21 11:13:18;;;;;;;;;24.80;23.80;;;;;;;;5020365;28;8887;-75
2022/07/21 11:15:57;;;;;;;;;22.60;22.60;;;;;;;;5022545;28;8853;-72
2022/07/21 11:18:27;;;;;;;;;26.40;25.20;;;;;;;;5023926;28;9651;-72
2022/07/21 11:21:08;;;;;;;;;23.80;23.20;;;;;;;;5021150;28;8885;-72
2022/07/21 11:23:40;;;;;;;;;25.40;25.40;;;;;;;;5020105;28;8901;-80
2022/07/21 11:26:12;;;;;;;;;28.40;26.40;;;;;;;;5023401;28;8984;-78
2022/07/21 11:28:40;;;;;;;;;27.80;23.40;;;;;;;;5023251;28;8877;-77
2022/07/21 11:31:21;;;;;;;;;20.00;20.00;;;;;;;;5018453;28;8794;-76
2022/07/21 11:33:49;;;;;;;;;22.20;22.20;;;;;;;;5017157;28;8889;-76
2022/07/21 11:36:35;;;;;;;;;23.40;23.20;;;;;;;;5020340;28;8889;-77
2022/07/21 11:39:06;;;;;;;;;25.80;25.80;;;;;;;;5019312;28;8861;-78
2022/07/21 11:41:35;;;;;;;;;19.80;19.80;;;;;;;;5023680;28;8962;-77
2022/07/21 11:44:03;;;;;;;;;23.80;23.80;;;;;;;;5022703;28;8897;-76
2022/07/21 11:46:46;;;;;;;;;21.00;21.00;;;;;;;;5023254;28;8846;-78
2022/07/21 11:49:14;;;;;;;;;22.80;22.80;;;;;;;;5022135;28;8865;-77
2022/07/21 11:51:48;;;;;;;;;24.00;22.80;;;;;;;;5022385;28;9019;-76
2022/07/21 11:54:23;;;;;;;;;26.80;24.80;;;;;;;;5023111;28;8888;-78
2022/07/21 11:56:54;;;;;;;;;28.20;26.80;;;;;;;;5023110;28;8868;-76
2022/07/21 11:59:22;;;;;;;;;28.60;25.60;;;;;;;;5022674;28;8883;-76
2022/07/21 12:01:55;;;;;;;;;22.20;20.60;;;;;;;;5021230;28;8826;-76
2022/07/21 12:04:30;;;;;;;;;23.80;21.40;;;;;;;;5023166;28;8909;-78
2022/07/21 12:06:59;;;;;;;;;18.60;18.40;;;;;;;;5023533;28;8885;-80
2022/07/21 12:09:26;;;;;;;;;22.20;22.20;;;;;;;;5022037;28;8999;-77
2022/07/21 12:11:55;;;;;;;;;20.20;20.20;;;;;;;;5023341;28;9710;-78
2022/07/21 12:14:45;;;;;;;;;16.80;16.80;;;;;;;;5020203;28;8885;-76
2022/07/21 12:17:13;;;;;;;;;21.80;21.20;;;;;;;;5022444;28;8883;-78
2022/07/21 12:19:43;;;;;;;;;19.60;18.40;;;;;;;;5022977;28;8885;-75
2022/07/21 12:22:11;;;;;;;;;23.00;21.60;;;;;;;;5022983;28;8901;-77
2022/07/21 12:24:54;;;;;;;;;23.00;22.60;;;;;;;;5023693;28;8878;-77
2022/07/21 12:27:23;;;;;;;;;25.00;25.00;;;;;;;;5021704;28;8882;-77
2022/07/21 12:29:51;;;;;;;;;20.20;20.20;;;;;;;;5023000;28;8897;-76
2022/07/21 12:32:40;;;;;;;;;21.80;20.00;;;;;;;;5021816;28;8837;-79
2022/07/21 12:35:24;;;;;;;;;20.00;19.00;;;;;;;;5021789;28;8862;-77
2022/07/21 12:37:57;;;;;;;;;19.80;19.80;;;;;;;;5022913;28;8980;-77
2022/07/21 12:40:26;;;;;;;;;24.00;24.00;;;;;;;;5021942;28;9690;-78
2022/07/21 12:43:05;;;;;;;;;22.20;20.60;;;;;;;;5023519;28;8889;-77
2022/07/21 12:45:32;;;;;;;;;16.80;16.40;;;;;;;;5019177;28;9019;-78
2022/07/21 12:48:11;;;;;;;;;24.80;23.60;;;;;;;;5022408;28;8873;-76
2022/07/21 12:50:39;;;;;;;;;24.60;23.80;;;;;;;;5023029;28;8872;-77
2022/07/21 12:53:09;;;;;;;;;22.00;21.00;;;;;;;;5021902;28;8876;-78
2022/07/21 12:55:39;;;;;;;;;23.00;22.00;;;;;;;;5021466;28;8896;-78
2022/07/21 12:58:08;;;;;;;;;27.60;24.60;;;;;;;;5017828;28;8886;-77
2022/07/21 13:00:36;;;;;;;;;23.60;22.80;;;;;;;;5022267;28;8875;-78
2022/07/21 13:03:03;;;;;;;;;20.00;20.00;;;;;;;;5022051;28;8923;-79
2022/07/21 13:05:33;;;;;;;;;22.20;22.20;;;;;;;;5022521;28;8862;-78
2022/07/21 13:08:01;;;;;;;;;20.60;20.60;;;;;;;;5023677;28;8849;-77
2022/07/21 13:10:29;;;;;;;;;27.60;23.60;;;;;;;;5021569;28;8857;-79
2022/07/21 13:12:57;;;;;;;;;26.20;25.60;;;;;;;;5022330;28;8889;-79
2022/07/21 13:15:26;;;;;;;;;18.80;17.40;;;;;;;;5022009;28;8881;-77
2022/07/21 13:17:53;;;;;;;;;26.80;25.60;;;;;;;;5020357;28;8857;-76
2022/07/21 13:20:24;;;;;;;;;23.00;23.00;;;;;;;;5016742;28;8900;-79
2022/07/21 13:22:54;;;;;;;;;25.20;22.40;;;;;;;;5023122;28;8874;-78
2022/07/21 13:25:21;;;;;;;;;24.40;23.00;;;;;;;;5018929;28;8907;-77
2022/07/21 13:27:49;;;;;;;;;18.40;18.20;;;;;;;;5022661;28;8940;-76
2022/07/21 13:30:17;;;;;;;;;21.00;21.00;;;;;;;;5024879;28;8885;-79
2022/07/21 13:32:46;;;;;;;;;20.60;20.60;;;;;;;;5024686;28;8869;-76
2022/07/21 13:35:14;;;;;;;;;25.00;23.00;;;;;;;;5026530;28;8869;-79
2022/07/21 13:37:52;;;;;;;;;23.60;22.20;;;;;;;;5022648;28;8882;-77
2022/07/21 13:40:19;;;;;;;;;22.20;22.20;;;;;;;;5025950;28;9913;-79
2022/07/21 13:42:46;;;;;;;;;18.80;18.80;;;;;;;;5023937;28;8904;-76
2022/07/21 13:45:15;;;;;;;;;20.20;19.00;;;;;;;;5026295;28;8968;-78
2022/07/21 13:47:45;;;;;;;;;25.60;25.60;;;;;;;;5026018;28;8854;-77
2022/07/21 13:50:13;;;;;;;;;21.40;21.40;;;;;;;;5023199;28;8869;-78
2022/07/21 13:52:40;;;;;;;;;20.60;20.00;;;;;;;;5025881;28;8873;-78
2022/07/21 13:55:09;;;;;;;;;20.40;19.20;;;;;;;;5021897;28;8887;-79
2022/07/21 13:57:36;;;;;;;;;19.60;18.20;;;;;;;;5025743;28;8923;-77
2022/07/21 14:00:06;;;;;;;;;22.20;20.60;;;;;;;;5020464;28;8908;-77
2022/07/21 14:02:36;;;;;;;;;21.40;21.40;;;;;;;;5025927;28;8890;-77
2022/07/21 14:05:06;;;;;;;;;21.60;20.60;;;;;;;;5024183;28;9614;-77
2022/07/21 14:07:34;;;;;;;;;24.20;22.40;;;;;;;;5020025;28;8890;-78
2022/07/21 14:10:01;;;;;;;;;19.40;18.20;;;;;;;;5019008;28;8867;-81
2022/07/21 14:12:28;;;;;;;;;19.60;19.60;;;;;;;;5022679;28;8930;-87
2022/07/21 14:14:55;;;;;;;;;20.60;19.40;;;;;;;;5026578;28;8877;-80
2022/07/21 14:17:23;;;;;;;;;20.00;20.00;;;;;;;;5021747;28;8961;-81
2022/07/21 14:19:50;;;;;;;;;19.60;18.20;;;;;;;;5023669;28;8873;-79
2022/07/21 14:22:21;;;;;;;;;17.00;17.00;;;;;;;;5020295;28;8889;-77
2022/07/21 14:25:19;;;;;;;;;18.20;16.60;;;;;;;;5019589;28;8878;-85
2022/07/21 14:27:59;;;;;;;;;17.60;15.60;;;;;;;;5021552;28;9628;-82
2022/07/21 14:30:28;;;;;;;;;17.20;17.20;;;;;;;;5019369;28;8797;-83
2022/07/21 14:32:56;;;;;;;;;16.20;15.20;;;;;;;;5021260;28;8915;-79
2022/07/21 14:35:25;;;;;;;;;14.00;14.00;;;;;;;;5020557;28;8921;-79
2022/07/21 14:37:53;;;;;;;;;13.00;11.20;;;;;;;;5022028;28;8873;-74
2022/07/21 14:40:21;;;;;;;;;18.80;15.00;;;;;;;;5022565;28;8858;-75
2022/07/21 14:42:51;;;;;;;;;14.40;14.40;;;;;;;;5023270;28;9651;-75
2022/07/21 14:45:19;;;;;;;;;14.00;13.20;;;;;;;;5022123;28;9016;-77
2022/07/21 14:47:47;;;;;;;;;15.20;14.20;;;;;;;;5019015;28;8862;-75
2022/07/21 14:50:15;;;;;;;;;14.40;13.60;;;;;;;;5016695;28;8896;-78